sensor_id;sensor_type;location;lat;lon;timestamp;P1;durP1;ratioP1;P2;durP2;ratioP2
83634;SDS011;73596;49.482;11.238;2024-03-08T00:00:51;9.50;;;4.38;;
83634;SDS011;73596;49.482;11.238;2024-03-08T00:03:16;9.02;;;4.45;;
83634;SDS011;73596;49.482;11.238;2024-03-08T00:05:42;12.15;;;4.90;;
83634;SDS011;73596;49.482;11.238;2024-03-08T00:08:07;12.63;;;5.20;;
83634;SDS011;73596;49.482;11.238;2024-03-08T00:10:34;12.50;;;5.47;;
83634;SDS011;73596;49.482;11.238;2024-03-08T00:13:00;10.38;;;4.32;;
83634;SDS011;73596;49.482;11.238;2024-03-08T00:15:25;11.27;;;4.73;;
83634;SDS011;73596;49.482;11.238;2024-03-08T00:17:50;10.07;;;5.47;;
83634;SDS011;73596;49.482;11.238;2024-03-08T00:20:16;13.17;;;5.20;;
83634;SDS011;73596;49.482;11.238;2024-03-08T00:22:42;11.70;;;5.32;;
83634;SDS011;73596;49.482;11.238;2024-03-08T00:25:08;14.13;;;4.68;;
83634;SDS011;73596;49.482;11.238;2024-03-08T00:27:34;12.23;;;5.35;;
83634;SDS011;73596;49.482;11.238;2024-03-08T00:29:59;8.02;;;3.90;;
83634;SDS011;73596;49.482;11.238;2024-03-08T00:32:25;12.98;;;5.43;;
83634;SDS011;73596;49.482;11.238;2024-03-08T00:34:50;14.65;;;5.68;;
83634;SDS011;73596;49.482;11.238;2024-03-08T00:37:19;12.32;;;5.75;;
83634;SDS011;73596;49.482;11.238;2024-03-08T00:39:46;14.00;;;4.97;;
83634;SDS011;73596;49.482;11.238;2024-03-08T00:42:12;13.25;;;4.70;;
83634;SDS011;73596;49.482;11.238;2024-03-08T00:44:38;6.95;;;4.53;;
83634;SDS011;73596;49.482;11.238;2024-03-08T00:47:05;8.38;;;3.92;;
83634;SDS011;73596;49.482;11.238;2024-03-08T00:49:30;9.80;;;4.65;;
83634;SDS011;73596;49.482;11.238;2024-03-08T00:51:55;11.60;;;4.97;;
83634;SDS011;73596;49.482;11.238;2024-03-08T00:54:21;12.37;;;4.80;;
83634;SDS011;73596;49.482;11.238;2024-03-08T00:56:46;7.70;;;3.70;;
83634;SDS011;73596;49.482;11.238;2024-03-08T00:59:11;8.20;;;3.87;;
83634;SDS011;73596;49.482;11.238;2024-03-08T01:01:39;10.57;;;4.95;;
83634;SDS011;73596;49.482;11.238;2024-03-08T01:04:04;9.15;;;4.22;;
83634;SDS011;73596;49.482;11.238;2024-03-08T01:06:29;10.20;;;4.87;;
83634;SDS011;73596;49.482;11.238;2024-03-08T01:08:55;9.65;;;4.43;;
83634;SDS011;73596;49.482;11.238;2024-03-08T01:11:20;11.57;;;4.40;;
83634;SDS011;73596;49.482;11.238;2024-03-08T01:13:45;9.47;;;4.30;;
83634;SDS011;73596;49.482;11.238;2024-03-08T01:16:12;10.07;;;4.28;;
83634;SDS011;73596;49.482;11.238;2024-03-08T01:18:37;12.32;;;5.90;;
83634;SDS011;73596;49.482;11.238;2024-03-08T01:21:03;9.50;;;4.95;;
83634;SDS011;73596;49.482;11.238;2024-03-08T01:23:28;16.95;;;5.85;;
83634;SDS011;73596;49.482;11.238;2024-03-08T01:25:54;10.07;;;3.75;;
83634;SDS011;73596;49.482;11.238;2024-03-08T01:28:22;10.13;;;4.40;;
83634;SDS011;73596;49.482;11.238;2024-03-08T01:30:49;15.52;;;6.15;;
83634;SDS011;73596;49.482;11.238;2024-03-08T01:33:20;10.35;;;4.22;;
83634;SDS011;73596;49.482;11.238;2024-03-08T01:35:47;9.80;;;3.83;;
83634;SDS011;73596;49.482;11.238;2024-03-08T01:38:12;8.47;;;4.17;;
83634;SDS011;73596;49.482;11.238;2024-03-08T01:40:38;8.43;;;3.73;;
83634;SDS011;73596;49.482;11.238;2024-03-08T01:43:16;9.27;;;4.43;;
83634;SDS011;73596;49.482;11.238;2024-03-08T01:45:42;9.43;;;3.95;;
83634;SDS011;73596;49.482;11.238;2024-03-08T01:48:07;11.00;;;4.87;;
83634;SDS011;73596;49.482;11.238;2024-03-08T01:50:32;12.80;;;5.20;;
83634;SDS011;73596;49.482;11.238;2024-03-08T01:52:57;12.77;;;4.93;;
83634;SDS011;73596;49.482;11.238;2024-03-08T01:55:25;10.23;;;4.93;;
83634;SDS011;73596;49.482;11.238;2024-03-08T01:57:50;11.57;;;5.00;;
83634;SDS011;73596;49.482;11.238;2024-03-08T02:00:16;12.55;;;5.13;;
83634;SDS011;73596;49.482;11.238;2024-03-08T02:02:44;10.23;;;5.05;;
83634;SDS011;73596;49.482;11.238;2024-03-08T02:05:12;10.95;;;4.55;;
83634;SDS011;73596;49.482;11.238;2024-03-08T02:07:40;9.98;;;5.18;;
83634;SDS011;73596;49.482;11.238;2024-03-08T02:10:08;8.15;;;3.30;;
83634;SDS011;73596;49.482;11.238;2024-03-08T02:12:34;9.30;;;3.75;;
83634;SDS011;73596;49.482;11.238;2024-03-08T02:15:00;13.07;;;5.53;;
83634;SDS011;73596;49.482;11.238;2024-03-08T02:17:25;9.40;;;4.67;;
83634;SDS011;73596;49.482;11.238;2024-03-08T02:19:50;14.83;;;6.53;;
83634;SDS011;73596;49.482;11.238;2024-03-08T02:22:15;10.43;;;4.90;;
83634;SDS011;73596;49.482;11.238;2024-03-08T02:24:41;11.93;;;4.45;;
83634;SDS011;73596;49.482;11.238;2024-03-08T02:27:06;9.88;;;4.63;;
83634;SDS011;73596;49.482;11.238;2024-03-08T02:29:32;13.93;;;4.77;;
83634;SDS011;73596;49.482;11.238;2024-03-08T02:31:59;13.73;;;4.90;;
83634;SDS011;73596;49.482;11.238;2024-03-08T02:34:24;6.53;;;3.37;;
83634;SDS011;73596;49.482;11.238;2024-03-08T02:36:49;10.60;;;5.00;;
83634;SDS011;73596;49.482;11.238;2024-03-08T02:39:14;13.53;;;4.90;;
83634;SDS011;73596;49.482;11.238;2024-03-08T02:41:40;14.75;;;5.07;;
83634;SDS011;73596;49.482;11.238;2024-03-08T02:44:07;11.82;;;4.93;;
83634;SDS011;73596;49.482;11.238;2024-03-08T02:46:32;9.80;;;3.78;;
83634;SDS011;73596;49.482;11.238;2024-03-08T02:48:57;11.00;;;5.07;;
83634;SDS011;73596;49.482;11.238;2024-03-08T02:51:23;11.45;;;4.88;;
83634;SDS011;73596;49.482;11.238;2024-03-08T02:53:48;16.30;;;6.53;;
83634;SDS011;73596;49.482;11.238;2024-03-08T02:56:16;12.35;;;4.95;;
83634;SDS011;73596;49.482;11.238;2024-03-08T02:58:42;16.60;;;5.95;;
83634;SDS011;73596;49.482;11.238;2024-03-08T03:01:08;9.05;;;4.32;;
83634;SDS011;73596;49.482;11.238;2024-03-08T03:03:35;13.52;;;5.88;;
83634;SDS011;73596;49.482;11.238;2024-03-08T03:06:00;17.70;;;5.43;;
83634;SDS011;73596;49.482;11.238;2024-03-08T03:08:25;14.27;;;5.65;;
83634;SDS011;73596;49.482;11.238;2024-03-08T03:10:51;14.10;;;5.83;;
83634;SDS011;73596;49.482;11.238;2024-03-08T03:13:16;12.17;;;5.03;;
83634;SDS011;73596;49.482;11.238;2024-03-08T03:15:41;7.77;;;4.20;;
83634;SDS011;73596;49.482;11.238;2024-03-08T03:18:07;8.73;;;4.40;;
83634;SDS011;73596;49.482;11.238;2024-03-08T03:20:32;14.05;;;5.32;;
83634;SDS011;73596;49.482;11.238;2024-03-08T03:22:58;12.43;;;5.18;;
83634;SDS011;73596;49.482;11.238;2024-03-08T03:25:26;11.80;;;5.65;;
83634;SDS011;73596;49.482;11.238;2024-03-08T03:27:57;11.00;;;3.95;;
83634;SDS011;73596;49.482;11.238;2024-03-08T03:30:23;8.77;;;3.97;;
83634;SDS011;73596;49.482;11.238;2024-03-08T03:32:51;11.63;;;5.30;;
83634;SDS011;73596;49.482;11.238;2024-03-08T03:35:17;13.30;;;5.00;;
83634;SDS011;73596;49.482;11.238;2024-03-08T03:37:43;12.80;;;4.60;;
83634;SDS011;73596;49.482;11.238;2024-03-08T03:40:26;14.00;;;5.70;;
83634;SDS011;73596;49.482;11.238;2024-03-08T03:42:52;12.93;;;5.30;;
83634;SDS011;73596;49.482;11.238;2024-03-08T03:45:17;14.00;;;6.07;;
83634;SDS011;73596;49.482;11.238;2024-03-08T03:47:44;10.18;;;5.03;;
83634;SDS011;73596;49.482;11.238;2024-03-08T03:50:10;14.70;;;5.63;;
83634;SDS011;73596;49.482;11.238;2024-03-08T03:52:35;14.73;;;5.68;;
83634;SDS011;73596;49.482;11.238;2024-03-08T03:55:01;9.93;;;5.03;;
83634;SDS011;73596;49.482;11.238;2024-03-08T03:57:26;10.67;;;4.07;;
83634;SDS011;73596;49.482;11.238;2024-03-08T03:59:51;9.00;;;4.33;;
83634;SDS011;73596;49.482;11.238;2024-03-08T04:02:17;11.03;;;4.33;;
83634;SDS011;73596;49.482;11.238;2024-03-08T04:04:42;14.32;;;5.18;;
83634;SDS011;73596;49.482;11.238;2024-03-08T04:07:09;10.00;;;5.20;;
83634;SDS011;73596;49.482;11.238;2024-03-08T04:09:35;9.80;;;4.32;;
83634;SDS011;73596;49.482;11.238;2024-03-08T04:12:00;12.40;;;4.07;;
83634;SDS011;73596;49.482;11.238;2024-03-08T04:14:26;15.48;;;6.30;;
83634;SDS011;73596;49.482;11.238;2024-03-08T04:16:51;12.73;;;5.07;;
83634;SDS011;73596;49.482;11.238;2024-03-08T04:19:17;12.18;;;4.93;;
83634;SDS011;73596;49.482;11.238;2024-03-08T04:21:44;10.82;;;5.63;;
83634;SDS011;73596;49.482;11.238;2024-03-08T04:24:09;9.20;;;4.15;;
83634;SDS011;73596;49.482;11.238;2024-03-08T04:26:35;18.95;;;8.77;;
83634;SDS011;73596;49.482;11.238;2024-03-08T04:29:00;15.18;;;6.25;;
83634;SDS011;73596;49.482;11.238;2024-03-08T04:31:26;11.52;;;4.70;;
83634;SDS011;73596;49.482;11.238;2024-03-08T04:33:51;13.43;;;5.73;;
83634;SDS011;73596;49.482;11.238;2024-03-08T04:36:16;11.77;;;4.90;;
83634;SDS011;73596;49.482;11.238;2024-03-08T04:38:42;11.03;;;4.60;;
83634;SDS011;73596;49.482;11.238;2024-03-08T04:41:08;10.90;;;4.70;;
83634;SDS011;73596;49.482;11.238;2024-03-08T04:43:33;11.75;;;5.72;;
83634;SDS011;73596;49.482;11.238;2024-03-08T04:45:59;16.60;;;4.90;;
83634;SDS011;73596;49.482;11.238;2024-03-08T04:48:25;13.43;;;5.72;;
83634;SDS011;73596;49.482;11.238;2024-03-08T04:50:52;19.83;;;7.00;;
83634;SDS011;73596;49.482;11.238;2024-03-08T04:53:18;12.05;;;5.65;;
83634;SDS011;73596;49.482;11.238;2024-03-08T04:55:44;17.25;;;5.35;;
83634;SDS011;73596;49.482;11.238;2024-03-08T04:58:09;14.45;;;7.57;;
83634;SDS011;73596;49.482;11.238;2024-03-08T05:00:34;14.13;;;6.43;;
83634;SDS011;73596;49.482;11.238;2024-03-08T05:03:00;15.63;;;6.05;;
83634;SDS011;73596;49.482;11.238;2024-03-08T05:05:25;17.30;;;6.65;;
83634;SDS011;73596;49.482;11.238;2024-03-08T05:07:53;16.58;;;6.88;;
83634;SDS011;73596;49.482;11.238;2024-03-08T05:10:18;11.23;;;5.35;;
83634;SDS011;73596;49.482;11.238;2024-03-08T05:12:44;14.30;;;4.68;;
83634;SDS011;73596;49.482;11.238;2024-03-08T05:15:09;16.38;;;6.18;;
83634;SDS011;73596;49.482;11.238;2024-03-08T05:17:35;12.63;;;4.68;;
83634;SDS011;73596;49.482;11.238;2024-03-08T05:20:00;12.18;;;4.28;;
83634;SDS011;73596;49.482;11.238;2024-03-08T05:22:25;11.52;;;4.07;;
83634;SDS011;73596;49.482;11.238;2024-03-08T05:24:51;12.00;;;5.65;;
83634;SDS011;73596;49.482;11.238;2024-03-08T05:27:16;11.52;;;4.47;;
83634;SDS011;73596;49.482;11.238;2024-03-08T05:29:41;12.50;;;5.43;;
83634;SDS011;73596;49.482;11.238;2024-03-08T05:32:07;14.25;;;5.63;;
83634;SDS011;73596;49.482;11.238;2024-03-08T05:34:32;12.55;;;4.80;;
83634;SDS011;73596;49.482;11.238;2024-03-08T05:36:57;12.60;;;6.03;;
83634;SDS011;73596;49.482;11.238;2024-03-08T05:39:23;17.25;;;5.93;;
83634;SDS011;73596;49.482;11.238;2024-03-08T05:41:49;13.30;;;5.07;;
83634;SDS011;73596;49.482;11.238;2024-03-08T05:44:15;10.82;;;4.57;;
83634;SDS011;73596;49.482;11.238;2024-03-08T05:46:44;13.82;;;4.80;;
83634;SDS011;73596;49.482;11.238;2024-03-08T05:49:09;12.93;;;4.65;;
83634;SDS011;73596;49.482;11.238;2024-03-08T05:51:38;13.82;;;5.65;;
83634;SDS011;73596;49.482;11.238;2024-03-08T05:54:06;19.55;;;7.60;;
83634;SDS011;73596;49.482;11.238;2024-03-08T05:56:34;12.88;;;6.63;;
83634;SDS011;73596;49.482;11.238;2024-03-08T05:59:00;13.13;;;6.50;;
83634;SDS011;73596;49.482;11.238;2024-03-08T06:01:26;18.10;;;5.97;;
83634;SDS011;73596;49.482;11.238;2024-03-08T06:03:53;14.20;;;5.07;;
83634;SDS011;73596;49.482;11.238;2024-03-08T06:06:21;11.40;;;5.22;;
83634;SDS011;73596;49.482;11.238;2024-03-08T06:08:47;12.57;;;5.78;;
83634;SDS011;73596;49.482;11.238;2024-03-08T06:11:14;13.88;;;6.38;;
83634;SDS011;73596;49.482;11.238;2024-03-08T06:13:39;21.40;;;7.95;;
83634;SDS011;73596;49.482;11.238;2024-03-08T06:16:05;19.15;;;7.85;;
83634;SDS011;73596;49.482;11.238;2024-03-08T06:18:33;21.27;;;7.55;;
83634;SDS011;73596;49.482;11.238;2024-03-08T06:20:59;15.23;;;7.53;;
83634;SDS011;73596;49.482;11.238;2024-03-08T06:23:24;20.40;;;8.70;;
83634;SDS011;73596;49.482;11.238;2024-03-08T06:25:49;14.02;;;6.70;;
83634;SDS011;73596;49.482;11.238;2024-03-08T06:28:14;12.82;;;5.55;;
83634;SDS011;73596;49.482;11.238;2024-03-08T06:30:40;14.70;;;5.77;;
83634;SDS011;73596;49.482;11.238;2024-03-08T06:33:06;12.57;;;5.65;;
83634;SDS011;73596;49.482;11.238;2024-03-08T06:35:32;15.93;;;6.45;;
83634;SDS011;73596;49.482;11.238;2024-03-08T06:37:58;20.02;;;7.15;;
83634;SDS011;73596;49.482;11.238;2024-03-08T06:40:23;13.60;;;6.55;;
83634;SDS011;73596;49.482;11.238;2024-03-08T06:42:49;29.60;;;11.02;;
83634;SDS011;73596;49.482;11.238;2024-03-08T06:45:14;17.70;;;7.07;;
83634;SDS011;73596;49.482;11.238;2024-03-08T06:47:44;21.85;;;8.98;;
83634;SDS011;73596;49.482;11.238;2024-03-08T06:50:10;26.17;;;9.55;;
83634;SDS011;73596;49.482;11.238;2024-03-08T06:52:36;22.17;;;10.23;;
83634;SDS011;73596;49.482;11.238;2024-03-08T06:55:02;17.43;;;9.77;;
83634;SDS011;73596;49.482;11.238;2024-03-08T06:57:30;20.38;;;9.48;;
83634;SDS011;73596;49.482;11.238;2024-03-08T06:59:56;24.35;;;8.68;;
83634;SDS011;73596;49.482;11.238;2024-03-08T07:02:22;19.98;;;8.32;;
83634;SDS011;73596;49.482;11.238;2024-03-08T07:04:49;19.63;;;8.70;;
83634;SDS011;73596;49.482;11.238;2024-03-08T07:07:15;15.77;;;7.25;;
83634;SDS011;73596;49.482;11.238;2024-03-08T07:09:40;15.90;;;5.43;;
83634;SDS011;73596;49.482;11.238;2024-03-08T07:12:07;16.90;;;7.57;;
83634;SDS011;73596;49.482;11.238;2024-03-08T07:14:33;17.73;;;8.25;;
83634;SDS011;73596;49.482;11.238;2024-03-08T07:16:58;19.67;;;9.33;;
83634;SDS011;73596;49.482;11.238;2024-03-08T07:19:23;23.00;;;8.90;;
83634;SDS011;73596;49.482;11.238;2024-03-08T07:21:49;20.30;;;8.68;;
83634;SDS011;73596;49.482;11.238;2024-03-08T07:24:14;27.00;;;10.48;;
83634;SDS011;73596;49.482;11.238;2024-03-08T07:26:45;26.05;;;10.55;;
83634;SDS011;73596;49.482;11.238;2024-03-08T07:29:14;16.27;;;7.60;;
83634;SDS011;73596;49.482;11.238;2024-03-08T07:31:39;26.45;;;10.30;;
83634;SDS011;73596;49.482;11.238;2024-03-08T07:34:37;21.42;;;8.55;;
83634;SDS011;73596;49.482;11.238;2024-03-08T07:37:04;20.85;;;9.57;;
83634;SDS011;73596;49.482;11.238;2024-03-08T07:39:30;20.52;;;8.52;;
83634;SDS011;73596;49.482;11.238;2024-03-08T07:41:56;16.42;;;8.27;;
83634;SDS011;73596;49.482;11.238;2024-03-08T07:44:22;23.37;;;11.30;;
83634;SDS011;73596;49.482;11.238;2024-03-08T07:46:47;25.87;;;9.33;;
83634;SDS011;73596;49.482;11.238;2024-03-08T07:49:12;17.30;;;8.03;;
83634;SDS011;73596;49.482;11.238;2024-03-08T07:51:39;21.13;;;8.40;;
83634;SDS011;73596;49.482;11.238;2024-03-08T07:54:04;18.83;;;7.40;;
83634;SDS011;73596;49.482;11.238;2024-03-08T07:56:30;23.13;;;9.10;;
83634;SDS011;73596;49.482;11.238;2024-03-08T07:58:55;25.30;;;9.43;;
83634;SDS011;73596;49.482;11.238;2024-03-08T08:01:21;19.67;;;8.10;;
83634;SDS011;73596;49.482;11.238;2024-03-08T08:03:46;19.17;;;8.80;;
83634;SDS011;73596;49.482;11.238;2024-03-08T08:06:14;24.85;;;9.02;;
83634;SDS011;73596;49.482;11.238;2024-03-08T08:08:43;21.20;;;8.95;;
83634;SDS011;73596;49.482;11.238;2024-03-08T08:11:09;19.75;;;8.60;;
83634;SDS011;73596;49.482;11.238;2024-03-08T08:13:36;22.15;;;10.18;;
83634;SDS011;73596;49.482;11.238;2024-03-08T08:16:02;22.85;;;8.75;;
83634;SDS011;73596;49.482;11.238;2024-03-08T08:18:28;18.90;;;8.27;;
83634;SDS011;73596;49.482;11.238;2024-03-08T08:20:54;25.10;;;10.13;;
83634;SDS011;73596;49.482;11.238;2024-03-08T08:23:20;22.98;;;9.05;;
83634;SDS011;73596;49.482;11.238;2024-03-08T08:25:47;21.23;;;10.30;;
83634;SDS011;73596;49.482;11.238;2024-03-08T08:28:16;23.85;;;9.13;;
83634;SDS011;73596;49.482;11.238;2024-03-08T08:30:42;20.83;;;9.77;;
83634;SDS011;73596;49.482;11.238;2024-03-08T08:33:08;18.52;;;9.25;;
83634;SDS011;73596;49.482;11.238;2024-03-08T08:35:33;24.95;;;9.27;;
83634;SDS011;73596;49.482;11.238;2024-03-08T08:37:59;15.47;;;8.93;;
83634;SDS011;73596;49.482;11.238;2024-03-08T08:40:27;24.50;;;11.00;;
83634;SDS011;73596;49.482;11.238;2024-03-08T08:42:52;26.33;;;9.10;;
83634;SDS011;73596;49.482;11.238;2024-03-08T08:45:17;22.83;;;9.77;;
83634;SDS011;73596;49.482;11.238;2024-03-08T08:47:43;20.60;;;8.60;;
83634;SDS011;73596;49.482;11.238;2024-03-08T08:50:10;20.13;;;8.45;;
83634;SDS011;73596;49.482;11.238;2024-03-08T08:52:37;18.67;;;8.10;;
83634;SDS011;73596;49.482;11.238;2024-03-08T08:55:03;17.27;;;7.78;;
83634;SDS011;73596;49.482;11.238;2024-03-08T08:57:29;22.52;;;9.68;;
83634;SDS011;73596;49.482;11.238;2024-03-08T08:59:55;24.05;;;9.98;;
83634;SDS011;73596;49.482;11.238;2024-03-08T09:02:22;20.50;;;8.57;;
83634;SDS011;73596;49.482;11.238;2024-03-08T09:04:47;19.00;;;8.57;;
83634;SDS011;73596;49.482;11.238;2024-03-08T09:07:13;23.70;;;9.15;;
83634;SDS011;73596;49.482;11.238;2024-03-08T09:09:39;19.80;;;8.93;;
83634;SDS011;73596;49.482;11.238;2024-03-08T09:12:04;19.87;;;8.03;;
83634;SDS011;73596;49.482;11.238;2024-03-08T09:14:29;23.38;;;10.20;;
83634;SDS011;73596;49.482;11.238;2024-03-08T09:16:55;22.33;;;8.90;;
83634;SDS011;73596;49.482;11.238;2024-03-08T09:19:20;16.83;;;7.07;;
83634;SDS011;73596;49.482;11.238;2024-03-08T09:21:48;18.42;;;8.38;;
83634;SDS011;73596;49.482;11.238;2024-03-08T09:24:13;18.37;;;8.07;;
83634;SDS011;73596;49.482;11.238;2024-03-08T09:26:38;19.23;;;7.57;;
83634;SDS011;73596;49.482;11.238;2024-03-08T09:29:08;18.58;;;8.27;;
83634;SDS011;73596;49.482;11.238;2024-03-08T09:31:35;18.33;;;7.30;;
83634;SDS011;73596;49.482;11.238;2024-03-08T09:34:03;13.68;;;6.90;;
83634;SDS011;73596;49.482;11.238;2024-03-08T09:36:28;22.27;;;9.35;;
83634;SDS011;73596;49.482;11.238;2024-03-08T09:38:57;13.65;;;6.60;;
83634;SDS011;73596;49.482;11.238;2024-03-08T09:41:22;14.50;;;7.33;;
83634;SDS011;73596;49.482;11.238;2024-03-08T09:43:48;9.83;;;5.70;;
83634;SDS011;73596;49.482;11.238;2024-03-08T09:46:14;19.60;;;7.43;;
83634;SDS011;73596;49.482;11.238;2024-03-08T09:48:39;11.93;;;6.30;;
83634;SDS011;73596;49.482;11.238;2024-03-08T09:51:06;14.82;;;6.88;;
83634;SDS011;73596;49.482;11.238;2024-03-08T09:53:32;14.68;;;6.40;;
83634;SDS011;73596;49.482;11.238;2024-03-08T09:55:58;12.50;;;5.88;;
83634;SDS011;73596;49.482;11.238;2024-03-08T09:58:24;15.05;;;7.18;;
83634;SDS011;73596;49.482;11.238;2024-03-08T10:00:58;15.40;;;7.10;;
83634;SDS011;73596;49.482;11.238;2024-03-08T10:03:27;18.92;;;8.10;;
83634;SDS011;73596;49.482;11.238;2024-03-08T10:05:53;17.90;;;6.53;;
83634;SDS011;73596;49.482;11.238;2024-03-08T10:08:21;13.95;;;7.15;;
83634;SDS011;73596;49.482;11.238;2024-03-08T10:10:46;15.40;;;6.63;;
83634;SDS011;73596;49.482;11.238;2024-03-08T10:13:12;13.50;;;5.67;;
83634;SDS011;73596;49.482;11.238;2024-03-08T10:15:39;13.57;;;6.03;;
83634;SDS011;73596;49.482;11.238;2024-03-08T10:18:05;11.65;;;6.28;;
83634;SDS011;73596;49.482;11.238;2024-03-08T10:20:30;11.88;;;5.45;;
83634;SDS011;73596;49.482;11.238;2024-03-08T10:23:02;12.63;;;6.70;;
83634;SDS011;73596;49.482;11.238;2024-03-08T10:25:30;11.73;;;5.22;;
83634;SDS011;73596;49.482;11.238;2024-03-08T10:27:55;14.82;;;6.75;;
83634;SDS011;73596;49.482;11.238;2024-03-08T10:30:21;15.60;;;6.80;;
83634;SDS011;73596;49.482;11.238;2024-03-08T10:32:47;12.85;;;5.80;;
83634;SDS011;73596;49.482;11.238;2024-03-08T10:35:13;13.85;;;6.35;;
83634;SDS011;73596;49.482;11.238;2024-03-08T10:40:18;11.18;;;5.63;;
83634;SDS011;73596;49.482;11.238;2024-03-08T10:45:23;12.45;;;5.68;;
83634;SDS011;73596;49.482;11.238;2024-03-08T10:48:04;15.23;;;6.20;;
83634;SDS011;73596;49.482;11.238;2024-03-08T10:50:40;13.52;;;6.82;;
83634;SDS011;73596;49.482;11.238;2024-03-08T10:53:06;11.88;;;5.55;;
83634;SDS011;73596;49.482;11.238;2024-03-08T10:55:31;12.93;;;5.72;;
83634;SDS011;73596;49.482;11.238;2024-03-08T10:57:58;11.60;;;5.47;;
83634;SDS011;73596;49.482;11.238;2024-03-08T11:00:25;13.23;;;5.88;;
83634;SDS011;73596;49.482;11.238;2024-03-08T11:02:53;16.02;;;6.35;;
83634;SDS011;73596;49.482;11.238;2024-03-08T11:05:32;10.95;;;5.47;;
83634;SDS011;73596;49.482;11.238;2024-03-08T11:08:03;12.38;;;5.13;;
83634;SDS011;73596;49.482;11.238;2024-03-08T11:10:50;11.85;;;5.72;;
83634;SDS011;73596;49.482;11.238;2024-03-08T11:13:37;11.25;;;5.18;;
83634;SDS011;73596;49.482;11.238;2024-03-08T11:16:09;9.05;;;5.05;;
83634;SDS011;73596;49.482;11.238;2024-03-08T11:18:35;14.35;;;5.88;;
83634;SDS011;73596;49.482;11.238;2024-03-08T11:21:02;11.77;;;5.35;;
83634;SDS011;73596;49.482;11.238;2024-03-08T11:23:31;10.88;;;4.50;;
83634;SDS011;73596;49.482;11.238;2024-03-08T11:25:58;11.90;;;5.00;;
83634;SDS011;73596;49.482;11.238;2024-03-08T11:28:24;8.93;;;4.18;;
83634;SDS011;73596;49.482;11.238;2024-03-08T11:33:24;12.73;;;5.25;;
83634;SDS011;73596;49.482;11.238;2024-03-08T11:35:52;9.13;;;4.35;;
83634;SDS011;73596;49.482;11.238;2024-03-08T11:38:27;11.63;;;4.53;;
83634;SDS011;73596;49.482;11.238;2024-03-08T11:40:56;6.00;;;4.13;;
83634;SDS011;73596;49.482;11.238;2024-03-08T11:43:22;10.43;;;4.60;;
83634;SDS011;73596;49.482;11.238;2024-03-08T11:45:47;9.25;;;4.72;;
83634;SDS011;73596;49.482;11.238;2024-03-08T11:48:12;10.20;;;4.57;;
83634;SDS011;73596;49.482;11.238;2024-03-08T11:50:38;9.33;;;4.83;;
83634;SDS011;73596;49.482;11.238;2024-03-08T11:53:03;9.90;;;4.30;;
83634;SDS011;73596;49.482;11.238;2024-03-08T11:55:29;9.23;;;4.55;;
83634;SDS011;73596;49.482;11.238;2024-03-08T11:58:03;8.95;;;3.83;;
83634;SDS011;73596;49.482;11.238;2024-03-08T12:00:29;11.70;;;5.00;;
83634;SDS011;73596;49.482;11.238;2024-03-08T12:03:03;11.18;;;6.03;;
83634;SDS011;73596;49.482;11.238;2024-03-08T12:05:28;9.90;;;5.45;;
83634;SDS011;73596;49.482;11.238;2024-03-08T12:07:56;13.07;;;7.00;;
83634;SDS011;73596;49.482;11.238;2024-03-08T12:10:23;14.45;;;6.10;;
83634;SDS011;73596;49.482;11.238;2024-03-08T12:12:51;12.40;;;5.43;;
83634;SDS011;73596;49.482;11.238;2024-03-08T12:15:17;13.27;;;6.15;;
83634;SDS011;73596;49.482;11.238;2024-03-08T12:17:45;11.25;;;6.03;;
83634;SDS011;73596;49.482;11.238;2024-03-08T12:20:21;16.40;;;7.15;;
83634;SDS011;73596;49.482;11.238;2024-03-08T12:22:48;13.25;;;6.07;;
83634;SDS011;73596;49.482;11.238;2024-03-08T12:25:14;12.18;;;6.65;;
83634;SDS011;73596;49.482;11.238;2024-03-08T12:27:41;11.82;;;5.60;;
83634;SDS011;73596;49.482;11.238;2024-03-08T12:30:20;14.48;;;6.93;;
83634;SDS011;73596;49.482;11.238;2024-03-08T12:32:58;16.52;;;6.38;;
83634;SDS011;73596;49.482;11.238;2024-03-08T12:35:25;13.57;;;6.20;;
83634;SDS011;73596;49.482;11.238;2024-03-08T12:37:52;14.80;;;6.38;;
83634;SDS011;73596;49.482;11.238;2024-03-08T12:40:19;12.50;;;5.70;;
83634;SDS011;73596;49.482;11.238;2024-03-08T12:42:51;16.20;;;6.53;;
83634;SDS011;73596;49.482;11.238;2024-03-08T12:45:17;13.47;;;6.27;;
83634;SDS011;73596;49.482;11.238;2024-03-08T12:47:42;12.03;;;6.10;;
83634;SDS011;73596;49.482;11.238;2024-03-08T12:50:08;10.20;;;5.20;;
83634;SDS011;73596;49.482;11.238;2024-03-08T12:52:34;12.80;;;5.63;;
83634;SDS011;73596;49.482;11.238;2024-03-08T12:55:00;14.77;;;6.57;;
83634;SDS011;73596;49.482;11.238;2024-03-08T12:57:31;12.18;;;6.38;;
83634;SDS011;73596;49.482;11.238;2024-03-08T12:59:58;14.00;;;6.90;;
83634;SDS011;73596;49.482;11.238;2024-03-08T13:02:24;11.27;;;6.07;;
83634;SDS011;73596;49.482;11.238;2024-03-08T13:04:51;11.85;;;5.95;;
83634;SDS011;73596;49.482;11.238;2024-03-08T13:07:22;12.38;;;5.80;;
83634;SDS011;73596;49.482;11.238;2024-03-08T13:09:49;10.02;;;4.05;;
83634;SDS011;73596;49.482;11.238;2024-03-08T13:12:14;11.27;;;5.65;;
83634;SDS011;73596;49.482;11.238;2024-03-08T13:14:40;13.60;;;5.40;;
83634;SDS011;73596;49.482;11.238;2024-03-08T13:17:06;9.63;;;4.97;;
83634;SDS011;73596;49.482;11.238;2024-03-08T13:19:35;10.35;;;4.35;;
83634;SDS011;73596;49.482;11.238;2024-03-08T13:22:01;9.98;;;5.63;;
83634;SDS011;73596;49.482;11.238;2024-03-08T13:24:29;12.70;;;6.00;;
83634;SDS011;73596;49.482;11.238;2024-03-08T13:26:54;13.27;;;5.10;;
83634;SDS011;73596;49.482;11.238;2024-03-08T13:29:20;11.15;;;5.65;;
83634;SDS011;73596;49.482;11.238;2024-03-08T13:31:46;10.50;;;5.97;;
83634;SDS011;73596;49.482;11.238;2024-03-08T13:34:14;10.90;;;4.72;;
83634;SDS011;73596;49.482;11.238;2024-03-08T13:36:40;10.38;;;4.78;;
83634;SDS011;73596;49.482;11.238;2024-03-08T13:39:08;12.93;;;4.90;;
83634;SDS011;73596;49.482;11.238;2024-03-08T13:41:40;9.77;;;5.00;;
83634;SDS011;73596;49.482;11.238;2024-03-08T13:44:06;8.20;;;4.35;;
83634;SDS011;73596;49.482;11.238;2024-03-08T13:46:32;12.98;;;5.30;;
83634;SDS011;73596;49.482;11.238;2024-03-08T13:48:58;9.85;;;4.97;;
83634;SDS011;73596;49.482;11.238;2024-03-08T13:51:34;8.48;;;5.15;;
83634;SDS011;73596;49.482;11.238;2024-03-08T13:53:59;10.87;;;5.00;;
83634;SDS011;73596;49.482;11.238;2024-03-08T13:56:31;7.78;;;4.78;;
83634;SDS011;73596;49.482;11.238;2024-03-08T13:58:56;9.38;;;4.40;;
83634;SDS011;73596;49.482;11.238;2024-03-08T14:01:22;9.95;;;5.15;;
83634;SDS011;73596;49.482;11.238;2024-03-08T14:03:47;8.35;;;4.18;;
83634;SDS011;73596;49.482;11.238;2024-03-08T14:06:13;9.43;;;4.10;;
83634;SDS011;73596;49.482;11.238;2024-03-08T14:08:38;11.47;;;4.80;;
83634;SDS011;73596;49.482;11.238;2024-03-08T14:11:04;10.27;;;5.43;;
83634;SDS011;73596;49.482;11.238;2024-03-08T14:13:43;9.75;;;4.63;;
83634;SDS011;73596;49.482;11.238;2024-03-08T14:16:11;11.13;;;5.20;;
83634;SDS011;73596;49.482;11.238;2024-03-08T14:18:37;9.80;;;4.55;;
83634;SDS011;73596;49.482;11.238;2024-03-08T14:21:03;8.17;;;5.00;;
83634;SDS011;73596;49.482;11.238;2024-03-08T14:23:29;9.18;;;4.95;;
83634;SDS011;73596;49.482;11.238;2024-03-08T14:25:55;11.30;;;5.00;;
83634;SDS011;73596;49.482;11.238;2024-03-08T14:28:20;8.25;;;4.35;;